Time;durP1;ratioP1;P1;durP2;ratioP2;P2;SDS_P1;SDS_P2;PMS_P1;PMS_P2;Temp;Humidity;BMP_temperature;BMP_pressure;BME280_temperature;BME280_humidity;BME280_pressure;Samples;Min_cycle;Max_cycle;Signal;HPM_P1;HPM_P2
2022/02/20 00:01:15;;;;;;;18.57;8.83;;;;;;;1.93;64.13;101350.89;1738269;82;25720;-63
2022/02/20 00:03:42;;;;;;;22.27;9.23;;;;;;;1.92;63.94;101355.80;1738154;82;26487;-62
2022/02/20 00:06:10;;;;;;;22.22;9.43;;;;;;;1.90;63.67;101359.81;1710261;83;25543;-63
2022/02/20 00:08:37;;;;;;;24.32;10.08;;;;;;;1.86;63.59;101364.88;1710290;83;28337;-62
2022/02/20 00:11:04;;;;;;;22.98;10.30;;;;;;;1.83;63.48;101369.85;1709974;83;25762;-62
2022/02/20 00:13:31;;;;;;;23.32;9.38;;;;;;;1.74;63.52;101368.91;1713260;82;25703;-63
2022/02/20 00:15:59;;;;;;;18.35;10.15;;;;;;;1.66;63.57;101375.86;1732311;82;26587;-62
2022/02/20 00:18:26;;;;;;;18.52;9.73;;;;;;;1.63;63.65;101370.67;1717909;82;25732;-63
2022/02/20 00:20:53;;;;;;;17.42;8.98;;;;;;;1.60;63.70;101373.91;1711803;83;28192;-62
2022/02/20 00:23:20;;;;;;;18.73;9.58;;;;;;;1.61;63.88;101380.50;1720769;82;25736;-63
2022/02/20 00:25:48;;;;;;;20.37;9.53;;;;;;;1.61;64.15;101387.58;1729638;82;25755;-63
2022/02/20 00:28:15;;;;;;;21.25;9.53;;;;;;;1.58;64.59;101384.59;1731458;82;25702;-62
2022/02/20 00:30:44;;;;;;;17.42;9.43;;;;;;;1.58;64.48;101389.90;1731236;82;25497;-63
2022/02/20 00:33:13;;;;;;;22.48;9.28;;;;;;;1.61;64.62;101387.58;1719455;82;27445;-62
2022/02/20 00:35:41;;;;;;;25.37;10.53;;;;;;;1.64;65.00;101383.00;1711590;83;25717;-62
2022/02/20 00:38:10;;;;;;;25.85;9.95;;;;;;;1.66;64.90;101382.97;1711701;83;25788;-62
2022/02/20 00:40:39;;;;;;;14.73;7.92;;;;;;;1.74;64.91;101380.85;1714937;83;25836;-63
2022/02/20 00:43:06;;;;;;;24.23;9.80;;;;;;;1.80;65.30;101385.01;1725051;83;25689;-62
2022/02/20 00:45:33;;;;;;;25.32;11.18;;;;;;;1.76;64.84;101380.78;1726878;82;27459;-62
2022/02/20 00:48:01;;;;;;;26.37;10.45;;;;;;;1.77;64.87;101375.39;1729119;82;26088;-62
2022/02/20 00:50:29;;;;;;;20.80;10.15;;;;;;;1.75;64.74;101386.53;1724318;83;25663;-63
2022/02/20 00:52:56;;;;;;;24.25;11.05;;;;;;;1.76;64.81;101382.95;1724653;83;25821;-62
2022/02/20 00:55:25;;;;;;;23.98;10.13;;;;;;;1.75;64.96;101390.98;1725039;83;25863;-63
2022/02/20 00:57:54;;;;;;;21.40;9.85;;;;;;;1.71;64.69;101383.63;1722545;83;27452;-63
2022/02/20 01:00:22;;;;;;;16.70;9.93;;;;;;;1.67;64.58;101388.19;1712021;83;25848;-62
2022/02/20 01:02:50;;;;;;;20.57;8.63;;;;;;;1.68;64.61;101394.34;1711744;83;25747;-62
2022/02/20 01:05:17;;;;;;;38.92;10.23;;;;;;;1.66;65.72;101429.38;1712155;83;25743;-62
2022/02/20 01:07:45;;;;;;;24.67;10.53;;;;;;;1.51;66.23;101445.44;1711978;82;25769;-62
2022/02/20 01:10:16;;;;;;;26.17;10.68;;;;;;;1.51;67.33;101447.62;1716221;82;27485;-63
2022/02/20 01:12:44;;;;;;;26.52;12.40;;;;;;;1.55;66.42;101451.01;1724723;83;25752;-63
2022/02/20 01:15:13;;;;;;;23.40;11.43;;;;;;;1.63;66.32;101441.43;1725068;82;25681;-62
2022/02/20 01:17:41;;;;;;;22.55;11.12;;;;;;;1.64;66.25;101434.72;1724845;81;26561;-62
2022/02/20 01:20:10;;;;;;;25.65;10.00;;;;;;;1.70;66.43;101428.31;1725892;83;25781;-62
2022/02/20 01:22:38;;;;;;;26.57;11.55;;;;;;;1.77;66.19;101434.23;1721787;83;27546;-62
2022/02/20 01:25:07;;;;;;;22.30;10.65;;;;;;;1.87;66.13;101433.78;1723560;83;25853;-63
2022/02/20 01:27:34;;;;;;;24.63;11.70;;;;;;;2.02;66.12;101442.02;1724946;83;25749;-63
2022/02/20 01:30:03;;;;;;;25.35;10.08;;;;;;;2.12;65.95;101443.36;1724798;81;25788;-63
2022/02/20 01:32:30;;;;;;;18.15;10.53;;;;;;;2.19;65.54;101437.33;1724745;83;25740;-62
2022/02/20 01:34:58;;;;;;;19.62;9.43;;;;;;;2.18;65.08;101432.95;1725023;83;28290;-63
2022/02/20 01:37:25;;;;;;;31.07;10.10;;;;;;;2.17;64.79;101437.86;1724744;83;25780;-62
2022/02/20 01:39:52;;;;;;;18.80;9.73;;;;;;;2.15;64.51;101437.94;1724845;83;25779;-63
2022/02/20 01:42:21;;;;;;;20.60;10.20;;;;;;;2.12;64.29;101435.40;1725115;81;25888;-62
2022/02/20 01:44:49;;;;;;;20.35;9.58;;;;;;;2.05;64.02;101438.40;1727154;82;25742;-62
2022/02/20 01:47:16;;;;;;;20.08;9.60;;;;;;;1.96;63.93;101433.00;1742539;82;27403;-63
2022/02/20 01:49:44;;;;;;;18.85;9.90;;;;;;;1.93;64.00;101442.44;1742236;82;25772;-63
2022/02/20 01:52:12;;;;;;;22.85;10.75;;;;;;;1.91;64.15;101445.61;1738103;82;25767;-62
2022/02/20 01:54:39;;;;;;;19.05;9.50;;;;;;;1.84;64.08;101441.01;1725038;83;25784;-62
2022/02/20 01:57:09;;;;;;;24.05;10.40;;;;;;;1.78;64.05;101442.59;1726524;82;25784;-62
2022/02/20 01:59:38;;;;;;;18.92;9.05;;;;;;;1.75;64.31;101452.84;1701217;83;27614;-62
2022/02/20 02:02:08;;;;;;;23.73;11.05;;;;;;;1.74;64.57;101456.45;1699128;83;25992;-63
2022/02/20 02:04:36;;;;;;;24.18;9.58;;;;;;;1.74;64.70;101460.87;1724317;83;25824;-63
2022/02/20 02:07:05;;;;;;;25.50;10.72;;;;;;;1.75;64.90;101452.00;1725486;83;25782;-62
2022/02/20 02:09:45;;;;;;;20.35;10.00;;;;;;;1.73;64.77;101461.36;1678488;83;25789;-62
2022/02/20 02:12:14;;;;;;;20.52;9.85;;;;;;;1.74;64.85;101456.90;1720553;83;27537;-62
2022/02/20 02:15:05;;;;;;;21.80;10.25;;;;;;;1.75;64.94;101461.28;1714440;83;27359;-62
2022/02/20 02:17:35;;;;;;;18.98;10.38;;;;;;;1.74;64.98;101460.44;1712726;81;25763;-61
2022/02/20 02:20:21;;;;;;;21.80;9.58;;;;;;;1.72;64.98;101457.82;1716811;83;25794;-62
2022/02/20 02:23:06;;;;;;;20.45;10.78;;;;;;;1.67;64.79;101457.60;1700398;83;25779;-61
2022/02/20 02:25:38;;;;;;;21.93;10.13;;;;;;;1.62;64.84;101456.94;1682910;84;27504;-61
2022/02/20 02:28:07;;;;;;;20.37;10.95;;;;;;;1.56;64.69;101462.90;1681631;84;25754;-61
2022/02/20 02:30:38;;;;;;;20.43;9.40;;;;;;;1.48;64.61;101457.01;1683943;85;25775;-62
2022/02/20 02:33:06;;;;;;;22.70;10.48;;;;;;;1.44;64.73;101462.05;1684714;84;27925;-61
2022/02/20 02:35:33;;;;;;;21.33;11.28;;;;;;;1.38;64.49;101459.65;1684812;85;25746;-61
2022/02/20 02:38:00;;;;;;;31.55;13.30;;;;;;;1.34;64.69;101460.67;1684742;85;27510;-62
2022/02/20 02:40:28;;;;;;;22.45;10.48;;;;;;;1.31;64.81;101463.44;1684910;85;26475;-61
2022/02/20 02:42:55;;;;;;;21.27;10.03;;;;;;;1.26;64.97;101464.94;1684741;85;25809;-61
2022/02/20 02:45:28;;;;;;;32.40;11.33;;;;;;;1.23;65.24;101462.42;1684253;84;25789;-61
2022/02/20 02:47:55;;;;;;;23.87;10.80;;;;;;;1.23;65.77;101462.42;1683341;85;25769;-61
2022/02/20 02:50:22;;;;;;;25.92;11.05;;;;;;;1.22;65.59;101468.17;1684516;85;28350;-61
2022/02/20 02:52:51;;;;;;;18.05;9.75;;;;;;;1.19;65.56;101463.00;1684763;84;26117;-61
2022/02/20 02:55:18;;;;;;;23.45;9.70;;;;;;;1.18;65.69;101462.59;1685250;85;25906;-61
2022/02/20 02:57:45;;;;;;;20.25;10.18;;;;;;;1.20;65.65;101464.73;1684584;85;25826;-62
2022/02/20 03:00:14;;;;;;;26.68;11.95;;;;;;;1.21;65.94;101465.11;1685252;83;25990;-61
2022/02/20 03:02:43;;;;;;;19.92;10.08;;;;;;;1.17;65.48;101464.84;1684678;83;27508;-61
2022/02/20 03:05:10;;;;;;;24.00;11.18;;;;;;;1.11;65.54;101457.14;1684806;83;25759;-61
2022/02/20 03:07:38;;;;;;;18.90;9.58;;;;;;;1.04;65.44;101453.84;1684687;84;25808;-61
2022/02/20 03:10:06;;;;;;;22.90;10.35;;;;;;;1.04;65.31;101456.94;1684807;85;25787;-61
2022/02/20 03:12:34;;;;;;;19.00;9.43;;;;;;;1.02;65.35;101456.16;1684663;85;25830;-61
2022/02/20 03:15:02;;;;;;;17.87;9.50;;;;;;;1.00;65.62;101456.20;1684836;85;27450;-61
2022/02/20 03:17:30;;;;;;;18.85;9.88;;;;;;;1.00;65.87;101458.84;1684617;85;25749;-61
2022/02/20 03:19:57;;;;;;;20.80;9.28;;;;;;;0.96;65.58;101457.25;1735035;81;26606;-61
2022/02/20 03:22:24;;;;;;;23.75;10.38;;;;;;;0.98;65.65;101458.06;1738289;82;25830;-61
2022/02/20 03:24:51;;;;;;;21.55;10.48;;;;;;;1.01;65.65;101457.92;1726172;82;25826;-61
2022/02/20 03:27:18;;;;;;;22.73;9.50;;;;;;;1.02;65.85;101457.48;1707078;84;28465;-61
2022/02/20 03:29:46;;;;;;;19.73;9.48;;;;;;;1.02;65.95;101466.28;1722124;82;25491;-61
2022/02/20 03:32:14;;;;;;;20.35;9.80;;;;;;;1.02;66.08;101470.26;1715242;82;25652;-62
2022/02/20 03:34:41;;;;;;;18.62;8.33;;;;;;;1.08;66.15;101474.47;1738296;81;25863;-61
2022/02/20 03:37:08;;;;;;;21.07;9.98;;;;;;;1.12;66.28;101473.89;1738291;82;25777;-61
2022/02/20 03:39:36;;;;;;;18.27;9.40;;;;;;;1.14;66.04;101476.03;1738728;82;27562;-61
2022/02/20 03:42:05;;;;;;;23.30;9.88;;;;;;;1.15;65.96;101482.58;1739435;82;25737;-62
2022/02/20 03:44:49;;;;;;;21.87;9.33;;;;;;;1.15;65.86;101486.56;1683246;83;25818;-63
2022/02/20 03:47:17;;;;;;;20.45;9.60;;;;;;;1.13;65.76;101494.17;1721446;82;25803;-62
2022/02/20 03:49:45;;;;;;;17.30;8.48;;;;;;;1.10;65.60;101485.88;1738970;82;25862;-62
2022/02/20 03:52:20;;;;;;;18.98;9.10;;;;;;;1.07;65.65;101485.98;1737823;81;26745;-61
2022/02/20 03:54:48;;;;;;;15.75;8.55;;;;;;;1.07;65.65;101478.03;1738383;82;25772;-61
2022/02/20 03:57:16;;;;;;;17.42;9.33;;;;;;;1.09;65.92;101478.84;1738301;82;25772;-61
2022/02/20 03:59:56;;;;;;;24.80;9.63;;;;;;;1.04;65.82;101487.41;1734775;82;25872;-61
2022/02/20 04:02:34;;;;;;;21.87;8.65;;;;;;;1.04;65.92;101493.59;1738102;82;25641;-62
2022/02/20 04:05:04;;;;;;;16.90;9.55;;;;;;;1.06;65.89;101485.58;1737912;82;28243;-62
2022/02/20 04:07:34;;;;;;;20.70;9.33;;;;;;;1.06;65.98;101488.23;1736944;82;25745;-61
2022/02/20 04:10:04;;;;;;;22.77;8.83;;;;;;;1.06;66.03;101478.52;1732598;82;25773;-62
2022/02/20 04:12:32;;;;;;;18.32;9.38;;;;;;;1.11;66.13;101487.61;1711693;82;25797;-61
2022/02/20 04:15:00;;;;;;;24.37;9.55;;;;;;;1.15;66.24;101485.70;1732441;82;26399;-61
2022/02/20 04:17:28;;;;;;;17.15;8.15;;;;;;;1.20;66.48;101489.91;1732883;82;27497;-61
2022/02/20 04:19:56;;;;;;;19.90;7.97;;;;;;;1.24;66.44;101490.66;1738196;82;25776;-61
2022/02/20 04:22:22;;;;;;;17.98;8.73;;;;;;;1.27;66.43;101491.85;1738191;82;25733;-61
2022/02/20 04:24:49;;;;;;;22.37;9.68;;;;;;;1.32;66.61;101487.25;1727025;82;25833;-62
2022/02/20 04:27:17;;;;;;;24.60;10.15;;;;;;;1.33;66.53;101492.97;1730631;82;25515;-61
2022/02/20 04:29:45;;;;;;;23.87;8.85;;;;;;;1.35;66.43;101486.27;1738229;82;28191;-61
2022/02/20 04:32:12;;;;;;;20.62;9.40;;;;;;;1.36;66.30;101486.67;1738120;82;25867;-61
2022/02/20 04:34:40;;;;;;;20.37;9.25;;;;;;;1.33;66.11;101484.13;1738393;82;25791;-61
2022/02/20 04:37:07;;;;;;;22.85;9.58;;;;;;;1.29;65.99;101487.36;1734238;82;25801;-60
2022/02/20 04:39:36;;;;;;;18.82;9.85;;;;;;;1.24;65.89;101482.23;1732675;82;25870;-61
2022/02/20 04:42:04;;;;;;;16.70;9.43;;;;;;;1.24;65.94;101480.91;1732279;82;28738;-61
2022/02/20 04:44:44;;;;;;;19.90;8.75;;;;;;;1.23;65.94;101483.63;1712947;81;25673;-61
2022/02/20 04:47:13;;;;;;;19.80;7.87;;;;;;;1.18;65.96;101478.50;1738760;81;25647;-61
2022/02/20 04:49:40;;;;;;;25.55;8.85;;;;;;;1.13;65.93;101481.77;1738212;82;25816;-61
2022/02/20 04:52:14;;;;;;;21.52;9.73;;;;;;;1.12;66.25;101480.03;1736910;82;25684;-61
2022/02/20 04:54:49;;;;;;;16.55;7.97;;;;;;;1.13;66.46;101480.92;1715620;82;27436;-61
2022/02/20 04:57:18;;;;;;;15.10;7.90;;;;;;;1.09;66.49;101479.70;1739332;81;25731;-62
2022/02/20 04:59:45;;;;;;;17.15;8.13;;;;;;;1.12;66.64;101484.48;1716122;82;25809;-62
2022/02/20 05:02:12;;;;;;;17.70;9.13;;;;;;;1.11;66.77;101480.11;1739970;81;25814;-61
2022/02/20 05:04:41;;;;;;;21.17;9.08;;;;;;;1.15;66.97;101469.80;1737910;81;25763;-62
2022/02/20 05:07:08;;;;;;;18.12;8.78;;;;;;;1.22;67.09;101476.12;1738614;81;27491;-62
2022/02/20 05:09:37;;;;;;;20.60;9.38;;;;;;;1.29;67.02;101477.23;1737594;82;25905;-62
2022/02/20 05:12:06;;;;;;;21.87;8.83;;;;;;;1.34;67.11;101480.11;1738522;82;25752;-61
2022/02/20 05:14:33;;;;;;;21.45;9.63;;;;;;;1.35;67.02;101469.03;1738443;82;25888;-62
2022/02/20 05:17:03;;;;;;;20.12;8.58;;;;;;;1.36;67.12;101465.47;1738060;82;25794;-62
2022/02/20 05:19:35;;;;;;;16.97;8.35;;;;;;;1.34;66.78;101469.95;1718160;82;27491;-61
2022/02/20 05:22:03;;;;;;;17.60;9.23;;;;;;;1.34;66.73;101458.02;1728998;83;25855;-61
2022/02/20 05:24:32;;;;;;;19.15;8.55;;;;;;;1.36;66.67;101462.81;1728108;82;25746;-61
2022/02/20 05:26:59;;;;;;;25.50;9.18;;;;;;;1.33;66.53;101460.27;1727290;83;25804;-61
2022/02/20 05:29:28;;;;;;;18.45;8.55;;;;;;;1.31;66.40;101464.76;1727076;82;25814;-61
2022/02/20 05:31:56;;;;;;;18.62;8.08;;;;;;;1.27;66.51;101464.49;1728498;83;27481;-61
2022/02/20 05:34:25;;;;;;;17.05;8.45;;;;;;;1.26;66.48;101455.66;1728290;82;25873;-61
2022/02/20 05:36:52;;;;;;;21.02;8.33;;;;;;;1.28;66.68;101461.77;1727340;83;25780;-61
2022/02/20 05:39:20;;;;;;;17.15;8.45;;;;;;;1.31;66.81;101467.41;1725924;83;25811;-61
2022/02/20 05:41:48;;;;;;;18.82;8.58;;;;;;;1.31;66.95;101474.03;1727518;83;25959;-61
2022/02/20 05:44:15;;;;;;;21.73;7.95;;;;;;;1.35;66.95;101467.23;1727157;82;27482;-61
2022/02/20 05:46:44;;;;;;;20.27;7.92;;;;;;;1.42;67.08;101472.31;1741050;82;25514;-61
2022/02/20 05:49:13;;;;;;;17.48;8.00;;;;;;;1.50;67.22;101480.36;1743932;82;25707;-61
2022/02/20 05:51:44;;;;;;;16.52;8.55;;;;;;;1.55;67.18;101476.20;1742048;80;25824;-61
2022/02/20 05:54:13;;;;;;;15.88;7.85;;;;;;;1.51;66.98;101474.61;1742347;82;25465;-60
2022/02/20 05:56:40;;;;;;;23.95;8.10;;;;;;;1.51;66.95;101470.16;1725643;83;27472;-61
2022/02/20 05:59:07;;;;;;;22.58;7.70;;;;;;;1.50;67.01;101475.05;1729214;83;25478;-61
2022/02/20 06:01:35;;;;;;;15.28;8.35;;;;;;;1.50;67.04;101480.83;1729100;83;25762;-61
2022/02/20 06:04:04;;;;;;;16.42;7.28;;;;;;;1.48;67.00;101476.89;1729014;83;26440;-62
2022/02/20 06:06:46;;;;;;;12.70;7.97;;;;;;;1.48;67.00;101468.94;1698136;83;25637;-62
2022/02/20 06:09:23;;;;;;;16.97;9.08;;;;;;;1.49;66.85;101470.67;1699871;84;27512;-61
2022/02/20 06:11:52;;;;;;;19.45;8.10;;;;;;;1.50;67.03;101461.80;1699742;84;25742;-61
2022/02/20 06:14:21;;;;;;;19.40;7.05;;;;;;;1.54;67.11;101471.81;1717638;83;25474;-61
2022/02/20 06:16:52;;;;;;;17.98;7.53;;;;;;;1.55;66.91;101470.89;1720522;83;25846;-61
2022/02/20 06:19:23;;;;;;;30.50;8.70;;;;;;;1.60;67.04;101476.02;1725203;81;25742;-61
2022/02/20 06:21:53;;;;;;;14.07;7.53;;;;;;;1.67;67.26;101469.53;1720528;82;28744;-61
2022/02/20 06:24:36;;;;;;;20.57;8.53;;;;;;;1.77;67.33;101466.92;1731072;82;26429;-61
2022/02/20 06:27:05;;;;;;;15.72;8.05;;;;;;;1.86;67.89;101459.91;1729131;81;25727;-61
2022/02/20 06:29:32;;;;;;;15.55;7.95;;;;;;;1.90;67.34;101467.28;1728901;82;26524;-61
2022/02/20 06:32:01;;;;;;;17.85;8.18;;;;;;;2.02;67.52;101475.19;1727750;83;25452;-62
2022/02/20 06:34:30;;;;;;;19.30;9.28;;;;;;;2.14;67.64;101473.84;1727000;82;27682;-61
2022/02/20 06:36:58;;;;;;;16.55;8.15;;;;;;;2.24;67.73;101472.98;1727467;82;25909;-61
2022/02/20 06:39:26;;;;;;;21.42;8.38;;;;;;;2.32;67.56;101467.75;1727443;83;25511;-61
2022/02/20 06:41:54;;;;;;;20.27;8.40;;;;;;;2.39;67.16;101470.98;1727766;83;25768;-62
2022/02/20 06:51:44;;;;;;;16.85;8.40;;;;;;;2.62;66.56;101470.47;1650612;84;25978;-62
2022/02/20 06:54:15;;;;;;;26.20;9.48;;;;;;;2.69;66.40;101476.38;1619932;86;25971;-62
2022/02/20 06:56:50;;;;;;;28.17;10.00;;;;;;;2.74;66.42;101477.02;1677510;82;26522;-61
2022/02/20 06:59:18;;;;;;;21.65;9.18;;;;;;;2.77;66.45;101464.46;1727508;83;25842;-61
2022/02/20 07:01:45;;;;;;;21.05;10.48;;;;;;;2.81;66.18;101461.20;1727729;83;27522;-61
2022/02/20 07:04:12;;;;;;;21.25;10.08;;;;;;;2.88;66.30;101468.44;1727429;82;25700;-61
2022/02/20 07:06:39;;;;;;;19.32;10.35;;;;;;;2.94;66.17;101465.04;1729089;82;25888;-61
2022/02/20 07:09:05;;;;;;;21.10;10.70;;;;;;;3.01;66.20;101464.27;1729347;82;26466;-61
2022/02/20 07:11:32;;;;;;;21.40;10.18;;;;;;;3.08;66.31;101459.09;1727522;83;25833;-62
2022/02/20 07:13:59;;;;;;;27.27;12.28;;;;;;;3.18;66.19;101462.17;1727908;83;28226;-61
2022/02/20 07:16:26;;;;;;;25.68;10.58;;;;;;;3.27;66.12;101460.91;1725721;81;25774;-62
2022/02/20 07:18:53;;;;;;;22.05;11.50;;;;;;;3.38;66.17;101468.36;1727149;83;25669;-62
2022/02/20 07:21:20;;;;;;;29.80;12.60;;;;;;;3.50;66.13;101457.60;1747931;81;26476;-62
2022/02/20 07:23:47;;;;;;;25.12;12.93;;;;;;;3.64;66.17;101462.26;1749434;82;26297;-62
2022/02/20 07:26:14;;;;;;;28.95;11.73;;;;;;;3.74;66.15;101460.40;1716464;81;27486;-61
2022/02/20 07:28:41;;;;;;;32.35;13.03;;;;;;;3.90;66.11;101467.62;1714764;82;25535;-61
2022/02/20 07:31:07;;;;;;;25.80;12.68;;;;;;;4.03;65.74;101471.89;1730078;82;25713;-62
2022/02/20 07:33:34;;;;;;;33.53;13.35;;;;;;;4.18;65.53;101472.90;1749300;82;25798;-61
2022/02/20 07:36:01;;;;;;;31.62;13.53;;;;;;;4.34;65.26;101469.00;1749059;82;25526;-61
2022/02/20 07:38:28;;;;;;;33.50;12.47;;;;;;;4.51;64.83;101462.33;1749239;81;27459;-61
2022/02/20 07:40:58;;;;;;;34.98;13.00;;;;;;;4.66;64.46;101462.48;1747965;82;25805;-61
2022/02/20 07:43:26;;;;;;;29.23;13.05;;;;;;;4.82;63.87;101457.17;1746438;81;25837;-62
2022/02/20 07:45:54;;;;;;;36.23;13.38;;;;;;;4.94;63.45;101457.86;1758633;81;26429;-61
2022/02/20 07:48:21;;;;;;;38.55;15.28;;;;;;;5.06;62.85;101456.33;1769398;81;25540;-61
2022/02/20 07:50:47;;;;;;;35.65;14.38;;;;;;;5.18;62.64;101460.13;1762832;81;27405;-61
2022/02/20 07:53:14;;;;;;;40.52;16.20;;;;;;;5.31;62.21;101454.97;1748959;82;25812;-61
2022/02/20 07:55:41;;;;;;;44.42;18.90;;;;;;;5.43;61.80;101454.75;1749177;82;25830;-61
2022/02/20 07:58:11;;;;;;;57.60;21.00;;;;;;;5.55;61.65;101462.08;1749573;81;26572;-61
2022/02/20 08:00:38;;;;;;;64.55;22.27;;;;;;;5.67;61.47;101462.34;1748702;81;25972;-61
2022/02/20 08:03:06;;;;;;;53.52;23.95;;;;;;;5.77;61.44;101457.72;1747465;81;27437;-61
2022/02/20 08:05:32;;;;;;;55.23;23.98;;;;;;;5.86;60.97;101453.67;1745276;81;26027;-61
2022/02/20 08:08:00;;;;;;;54.13;23.10;;;;;;;5.91;60.90;101454.25;1748010;81;25809;-61
2022/02/20 08:10:26;;;;;;;49.05;21.33;;;;;;;5.99;60.86;101448.92;1746409;81;25940;-61
2022/02/20 08:12:55;;;;;;;47.75;20.97;;;;;;;6.07;60.55;101438.23;1746709;82;25928;-62
2022/02/20 08:15:24;;;;;;;58.28;23.47;;;;;;;6.15;60.47;101444.44;1747139;82;27477;-61
2022/02/20 08:17:51;;;;;;;52.88;23.05;;;;;;;6.23;60.22;101434.14;1748304;81;25838;-61
2022/02/20 08:20:19;;;;;;;52.83;22.10;;;;;;;6.33;59.93;101436.27;1740451;81;25718;-61
2022/02/20 08:22:46;;;;;;;40.52;19.35;;;;;;;6.42;59.39;101441.06;1725419;83;25855;-62
2022/02/20 08:25:15;;;;;;;44.53;21.02;;;;;;;6.54;59.17;101439.48;1703231;82;25496;-62
2022/02/20 08:27:42;;;;;;;46.92;18.80;;;;;;;6.65;59.16;101446.84;1709472;83;27477;-62
2022/02/20 08:30:12;;;;;;;39.80;18.42;;;;;;;6.77;58.31;101434.52;1724634;83;25835;-62
2022/02/20 08:32:40;;;;;;;42.00;19.75;;;;;;;6.88;58.32;101432.89;1724589;82;25815;-62
2022/02/20 08:35:10;;;;;;;41.83;18.37;;;;;;;7.03;57.99;101424.88;1724679;81;25786;-62
2022/02/20 08:37:42;;;;;;;37.15;18.27;;;;;;;7.18;57.76;101426.56;1724664;83;25799;-61
2022/02/20 08:40:13;;;;;;;46.15;17.73;;;;;;;7.33;56.72;101420.71;1725450;82;27431;-61
2022/02/20 08:42:41;;;;;;;38.50;16.75;;;;;;;7.51;56.91;101420.47;1725265;83;25912;-61
2022/02/20 08:45:09;;;;;;;40.23;16.50;;;;;;;7.75;56.76;101422.48;1729496;82;25761;-62
2022/02/20 08:47:37;;;;;;;36.40;14.68;;;;;;;7.96;55.99;101406.33;1739640;82;25813;-61
2022/02/20 08:50:12;;;;;;;26.10;13.45;;;;;;;8.15;55.17;101419.32;1724630;81;25772;-62
2022/02/20 08:52:38;;;;;;;30.30;14.30;;;;;;;8.30;54.96;101405.81;1723822;83;27488;-61
2022/02/20 08:55:07;;;;;;;36.77;14.93;;;;;;;8.44;54.44;101406.20;1724440;83;25755;-62
2022/02/20 08:57:35;;;;;;;33.40;14.00;;;;;;;8.60;54.17;101404.69;1724613;83;25658;-61
2022/02/20 09:00:05;;;;;;;29.82;13.40;;;;;;;8.74;54.05;101397.86;1725552;83;25792;-62
2022/02/20 09:02:33;;;;;;;22.75;12.25;;;;;;;8.91;53.46;101392.64;1725355;82;25949;-62
2022/02/20 09:05:00;;;;;;;27.98;13.10;;;;;;;9.03;53.07;101391.39;1725481;83;28138;-62
2022/02/20 09:07:27;;;;;;;37.67;11.63;;;;;;;9.14;52.13;101385.23;1725403;83;25681;-61
2022/02/20 09:09:54;;;;;;;34.15;13.18;;;;;;;9.24;51.03;101387.13;1724220;83;25773;-62
2022/02/20 09:12:20;;;;;;;31.00;12.20;;;;;;;9.31;51.25;101374.12;1725186;83;25794;-62
2022/02/20 09:14:47;;;;;;;36.53;12.28;;;;;;;9.40;50.81;101368.06;1725132;83;25744;-62
2022/02/20 09:17:14;;;;;;;29.57;12.03;;;;;;;9.50;49.71;101366.04;1725594;82;27538;-62
2022/02/20 09:19:41;;;;;;;27.65;13.05;;;;;;;9.59;49.98;101359.98;1725541;83;26096;-62
2022/02/20 09:22:08;;;;;;;31.55;13.83;;;;;;;9.67;47.99;101354.88;1726061;83;26352;-61
2022/02/20 09:24:35;;;;;;;38.35;13.83;;;;;;;9.74;49.37;101351.25;1724899;82;25707;-61
2022/02/20 09:27:02;;;;;;;47.60;12.43;;;;;;;9.83;49.38;101355.92;1720911;82;25804;-61
2022/02/20 09:29:33;;;;;;;25.10;11.15;;;;;;;9.94;48.66;101351.56;1726936;82;28225;-61
2022/02/20 09:31:58;;;;;;;26.60;9.23;;;;;;;10.01;46.92;101348.27;1723883;81;26051;-62
2022/02/20 09:34:25;;;;;;;31.05;7.53;;;;;;;10.10;47.03;101344.50;1725340;83;25782;-61
2022/02/20 09:36:51;;;;;;;23.35;8.28;;;;;;;10.21;46.46;101328.39;1725278;83;25815;-61
2022/02/20 09:39:18;;;;;;;18.15;7.97;;;;;;;10.32;45.44;101321.69;1727851;83;26067;-62
2022/02/20 09:41:45;;;;;;;31.07;9.55;;;;;;;10.51;45.65;101318.05;1728606;83;27482;-61
2022/02/20 09:44:12;;;;;;;23.90;8.45;;;;;;;10.67;45.02;101306.41;1727294;83;25783;-62
2022/02/20 09:46:45;;;;;;;25.82;8.48;;;;;;;10.86;43.79;101317.91;1729299;83;25785;-62
2022/02/20 09:49:12;;;;;;;24.12;9.55;;;;;;;11.00;44.05;101311.87;1728845;82;25793;-62
2022/02/20 09:51:39;;;;;;;23.22;9.38;;;;;;;11.22;43.98;101317.22;1727913;83;26001;-62
2022/02/20 09:54:06;;;;;;;26.20;8.40;;;;;;;11.45;43.87;101304.16;1727627;83;28207;-62
2022/02/20 09:56:33;;;;;;;21.00;7.70;;;;;;;11.69;42.48;101298.55;1727834;81;25779;-62
2022/02/20 09:59:00;;;;;;;18.85;9.08;;;;;;;11.96;42.93;101288.56;1727524;83;25704;-62
2022/02/20 10:01:28;;;;;;;23.20;8.10;;;;;;;12.26;42.84;101286.92;1727846;83;25804;-62
2022/02/20 10:03:55;;;;;;;19.67;5.97;;;;;;;12.36;42.03;101277.03;1727612;82;25715;-62
2022/02/20 10:06:26;;;;;;;21.70;6.65;;;;;;;12.32;39.60;101278.80;1727774;82;28612;-62
2022/02/20 10:08:57;;;;;;;18.32;5.58;;;;;;;12.33;40.46;101273.73;1727816;82;25526;-62
2022/02/20 10:11:30;;;;;;;15.72;4.37;;;;;;;12.31;38.72;101271.69;1729067;82;25776;-62
2022/02/20 10:14:05;;;;;;;11.93;4.65;;;;;;;12.31;39.16;101271.69;1729453;83;25845;-62
2022/02/20 10:16:33;;;;;;;12.58;4.83;;;;;;;12.33;37.58;101269.20;1728003;82;25825;-62
2022/02/20 10:19:02;;;;;;;19.02;5.47;;;;;;;12.40;37.81;101264.60;1729269;83;27575;-62
2022/02/20 10:21:47;;;;;;;21.82;5.35;;;;;;;12.45;37.79;101260.52;1700015;84;25815;-62
2022/02/20 10:24:33;;;;;;;24.63;5.55;;;;;;;12.51;36.95;101258.60;1707377;83;25675;-62
2022/02/20 10:27:19;;;;;;;11.00;3.37;;;;;;;12.37;34.09;101250.39;1729523;82;25702;-61
2022/02/20 10:30:22;;;;;;;16.25;3.58;;;;;;;12.18;32.63;101244.43;1727399;83;25800;-62
2022/02/20 10:33:11;;;;;;;11.88;2.42;;;;;;;11.95;31.82;101231.58;1727606;83;27591;-61
2022/02/20 10:35:49;;;;;;;12.60;3.12;;;;;;;11.79;30.84;101237.44;1727615;81;25851;-62
2022/02/20 10:38:22;;;;;;;9.10;2.27;;;;;;;11.65;31.06;101237.31;1727554;83;25463;-62
2022/02/20 10:40:52;;;;;;;9.60;2.40;;;;;;;11.56;32.12;101227.33;1728034;83;26432;-62
2022/02/20 10:43:33;;;;;;;13.00;3.00;;;;;;;11.66;32.11;101221.48;1727606;83;25819;-62
2022/02/20 10:46:12;;;;;;;5.03;2.10;;;;;;;12.13;31.41;101223.77;1728927;81;27461;-62
2022/02/20 10:48:48;;;;;;;4.75;2.30;;;;;;;13.14;30.29;101214.23;1728919;83;25929;-62
2022/02/20 10:51:18;;;;;;;6.50;2.55;;;;;;;13.89;29.80;101200.08;1729377;81;25799;-62
2022/02/20 10:53:48;;;;;;;11.50;2.50;;;;;;;14.53;29.06;101189.35;1728942;81;26580;-62
2022/02/20 10:56:16;;;;;;;6.53;2.60;;;;;;;15.15;27.89;101176.44;1729539;81;25927;-62
2022/02/20 10:58:46;;;;;;;8.13;2.80;;;;;;;15.97;28.00;101163.11;1729220;81;27466;-62
2022/02/20 11:01:27;;;;;;;12.25;4.05;;;;;;;16.92;25.55;101152.53;1729345;81;25730;-62
2022/02/20 11:04:10;;;;;;;4.90;2.02;;;;;;;17.55;24.39;101154.23;1729159;81;25843;-63
2022/02/20 11:06:36;;;;;;;7.55;2.30;;;;;;;18.25;24.52;101149.06;1728440;83;25840;-63
2022/02/20 11:09:04;;;;;;;4.62;2.17;;;;;;;19.05;23.49;101136.98;1729438;83;25750;-63
2022/02/20 11:11:42;;;;;;;9.08;2.62;;;;;;;19.58;24.02;101130.71;1729088;83;28206;-63
2022/02/20 11:14:16;;;;;;;11.15;2.45;;;;;;;19.65;22.59;101118.50;1728992;83;25663;-63
2022/02/20 11:16:51;;;;;;;6.97;2.30;;;;;;;19.77;21.82;101107.95;1728127;82;25783;-63
2022/02/20 11:19:28;;;;;;;8.05;2.52;;;;;;;19.99;22.36;101098.85;1729060;82;25745;-63
2022/02/20 11:22:03;;;;;;;7.87;2.50;;;;;;;20.18;22.19;101093.30;1735593;82;25504;-63
2022/02/20 11:24:35;;;;;;;12.63;3.17;;;;;;;19.82;22.40;101091.34;1738713;82;27464;-63
2022/02/20 11:27:05;;;;;;;14.00;2.95;;;;;;;19.21;21.24;101101.91;1732289;82;25769;-63
2022/02/20 11:29:32;;;;;;;16.93;3.12;;;;;;;18.38;23.72;101102.19;1734248;82;25478;-63
2022/02/20 11:32:00;;;;;;;11.40;3.80;;;;;;;17.86;23.07;101115.35;1738304;82;26458;-63
2022/02/20 11:34:27;;;;;;;5.75;2.90;;;;;;;17.15;22.59;101125.56;1738120;82;25785;-63
2022/02/20 11:41:14;;;;;;;12.33;3.62;;;;;;;15.79;24.48;101112.47;1732495;82;25921;-62
2022/02/20 11:43:45;;;;;;;19.50;4.60;;;;;;;15.46;24.97;101108.76;1739556;82;25785;-62